createdAt,value
2023-03-10T00:02:05.378Z,1.88
2023-03-10T00:04:31.799Z,2.00
2023-03-10T00:06:58.183Z,1.65
2023-03-10T00:09:24.536Z,1.67
2023-03-10T00:11:50.842Z,1.73
2023-03-10T00:14:17.350Z,1.85
2023-03-10T00:16:44.649Z,2.05
2023-03-10T00:19:10.969Z,2.00
2023-03-10T00:21:37.288Z,2.10
2023-03-10T00:24:03.631Z,2.22
2023-03-10T00:26:30.162Z,2.13
2023-03-10T00:28:56.646Z,2.25
2023-03-10T00:31:24.323Z,2.30
2023-03-10T00:33:52.005Z,2.75
2023-03-10T00:36:19.943Z,2.13
2023-03-10T00:38:46.921Z,2.67
2023-03-10T00:41:15.072Z,2.83
2023-03-10T00:43:41.673Z,2.42
2023-03-10T00:46:08.323Z,2.25
2023-03-10T00:48:35.259Z,2.40
2023-03-10T00:51:01.932Z,2.17
2023-03-10T00:53:28.301Z,2.28
2023-03-10T00:56:02.019Z,2.38
2023-03-10T00:58:29.087Z,2.63
2023-03-10T01:00:55.788Z,2.25
2023-03-10T01:03:22.254Z,2.47
2023-03-10T01:05:49.666Z,2.28
2023-03-10T01:08:16.276Z,2.42
2023-03-10T01:10:42.998Z,2.35
2023-03-10T01:13:10.532Z,2.08
2023-03-10T01:15:36.918Z,2.90
2023-03-10T01:18:04.838Z,2.60
2023-03-10T01:20:31.991Z,2.85
2023-03-10T01:22:58.601Z,2.88
2023-03-10T01:25:25.054Z,2.28
2023-03-10T01:27:51.359Z,2.58
2023-03-10T01:30:17.822Z,2.40
2023-03-10T01:32:44.492Z,2.63
2023-03-10T01:35:11.094Z,2.25
2023-03-10T01:37:37.433Z,2.30
2023-03-10T01:40:05.437Z,2.42
2023-03-10T01:42:32.058Z,2.35
2023-03-10T01:45:06.299Z,2.65
2023-03-10T01:47:32.781Z,2.40
2023-03-10T01:49:59.235Z,2.20
2023-03-10T01:52:26.885Z,2.72
2023-03-10T01:54:59.692Z,2.63
2023-03-10T01:57:33.699Z,2.60
2023-03-10T02:00:00.385Z,3.10
2023-03-10T02:02:26.915Z,2.80
2023-03-10T02:04:54.160Z,2.65
2023-03-10T02:07:23.231Z,3.05
2023-03-10T02:09:50.472Z,2.28
2023-03-10T02:12:17.035Z,2.30
2023-03-10T02:14:44.319Z,2.42
2023-03-10T02:17:13.949Z,2.65
2023-03-10T02:19:47.342Z,2.25
2023-03-10T02:22:15.886Z,1.90
2023-03-10T02:24:52.895Z,2.50
2023-03-10T02:27:26.995Z,2.40
2023-03-10T02:29:59.611Z,2.13
2023-03-10T02:32:27.390Z,2.28
2023-03-10T02:34:53.783Z,2.40
2023-03-10T02:37:31.779Z,2.40
2023-03-10T02:39:58.713Z,1.80
2023-03-10T02:42:26.749Z,2.25
2023-03-10T02:44:53.966Z,1.98
2023-03-10T02:47:20.476Z,1.60
2023-03-10T02:49:46.897Z,2.03
2023-03-10T02:52:33.558Z,1.90
2023-03-10T02:54:59.951Z,2.47
2023-03-10T02:57:26.340Z,2.08
2023-03-10T02:59:52.718Z,1.67
2023-03-10T03:02:19.085Z,2.05
2023-03-10T03:04:45.469Z,2.08
2023-03-10T03:07:12.129Z,2.35
2023-03-10T03:09:38.483Z,2.08
2023-03-10T03:12:04.895Z,2.30
2023-03-10T03:14:31.216Z,2.45
2023-03-10T03:16:57.581Z,2.30
2023-03-10T03:19:24.042Z,2.20
2023-03-10T03:21:50.420Z,2.30
2023-03-10T03:24:18.115Z,2.10
2023-03-10T03:26:44.667Z,2.00
2023-03-10T03:29:12.061Z,2.38
2023-03-10T03:31:38.767Z,2.13
2023-03-10T03:34:05.998Z,2.17
2023-03-10T03:36:32.708Z,2.10
2023-03-10T03:38:59.064Z,2.20
2023-03-10T03:41:25.407Z,1.80
2023-03-10T03:43:51.737Z,1.98
2023-03-10T03:46:18.102Z,2.42
2023-03-10T03:48:44.561Z,1.42
2023-03-10T03:51:10.860Z,2.40
2023-03-10T03:53:37.211Z,2.00
2023-03-10T03:56:03.662Z,1.80
2023-03-10T03:58:30.091Z,2.30
2023-03-10T04:00:56.612Z,2.00
2023-03-10T04:03:23.044Z,1.92
2023-03-10T04:05:49.626Z,2.40
2023-03-10T04:08:16.088Z,2.00
2023-03-10T04:10:42.449Z,1.80
2023-03-10T04:13:08.897Z,2.08
2023-03-10T04:15:35.337Z,1.80
2023-03-10T04:18:01.754Z,2.00
2023-03-10T04:20:28.162Z,2.17
2023-03-10T04:22:54.506Z,1.83
2023-03-10T04:25:20.830Z,1.85
2023-03-10T04:27:47.156Z,2.08
2023-03-10T04:30:13.861Z,2.40
2023-03-10T04:32:40.290Z,2.05
2023-03-10T04:35:08.216Z,1.95
2023-03-10T04:37:34.636Z,2.10
2023-03-10T04:40:01.774Z,2.30
2023-03-10T04:42:28.188Z,2.03
2023-03-10T04:44:54.600Z,2.20
2023-03-10T04:47:20.936Z,2.58
2023-03-10T04:49:47.250Z,2.67
2023-03-10T04:52:14.379Z,2.67
2023-03-10T04:54:40.782Z,2.60
2023-03-10T04:57:07.101Z,2.70
2023-03-10T04:59:33.482Z,2.88
2023-03-10T05:02:00.349Z,2.80
2023-03-10T05:04:26.928Z,2.53
2023-03-10T05:06:53.524Z,2.80
2023-03-10T05:09:19.890Z,2.83
2023-03-10T05:11:46.306Z,2.45
2023-03-10T05:14:13.111Z,3.00
2023-03-10T05:16:39.472Z,3.00
2023-03-10T05:19:05.914Z,3.40
2023-03-10T05:21:32.387Z,3.28
2023-03-10T05:23:58.686Z,2.58
2023-03-10T05:26:25.316Z,2.90
2023-03-10T05:28:51.659Z,3.03
2023-03-10T05:31:18.053Z,2.97
2023-03-10T05:33:44.562Z,2.75
2023-03-10T05:36:12.424Z,2.90
2023-03-10T05:38:38.937Z,2.65
2023-03-10T05:41:09.111Z,2.85
2023-03-10T05:43:35.459Z,2.58
2023-03-10T05:46:01.814Z,2.67
2023-03-10T05:48:28.269Z,2.83
2023-03-10T05:51:02.236Z,2.80
2023-03-10T05:53:28.941Z,2.80
2023-03-10T05:55:55.421Z,2.90
2023-03-10T05:58:22.005Z,2.67
2023-03-10T06:00:48.429Z,2.85
2023-03-10T06:03:14.827Z,3.28
2023-03-10T06:05:41.188Z,3.40
2023-03-10T06:08:07.532Z,3.35
2023-03-10T06:10:33.966Z,4.10
2023-03-10T06:13:00.270Z,3.30
2023-03-10T06:15:26.604Z,3.10
2023-03-10T06:17:52.981Z,3.30
2023-03-10T06:20:19.387Z,3.30
2023-03-10T06:22:45.725Z,3.55
2023-03-10T06:25:12.960Z,3.90
2023-03-10T06:27:39.428Z,3.13
2023-03-10T06:30:06.074Z,3.80
2023-03-10T06:32:33.802Z,3.40
2023-03-10T06:35:00.221Z,3.58
2023-03-10T06:37:26.588Z,3.60
2023-03-10T06:39:53.029Z,3.22
2023-03-10T06:42:19.409Z,3.28
2023-03-10T06:44:48.031Z,3.95
2023-03-10T06:47:15.469Z,3.22
2023-03-10T06:49:41.777Z,3.15
2023-03-10T06:52:08.105Z,2.90
2023-03-10T06:54:34.482Z,2.95
2023-03-10T06:57:00.818Z,3.30
2023-03-10T06:59:27.178Z,3.35
2023-03-10T07:01:53.497Z,2.78
2023-03-10T07:04:19.928Z,3.33
2023-03-10T07:06:46.414Z,2.90
2023-03-10T07:09:12.973Z,2.35
2023-03-10T07:11:39.538Z,2.80
2023-03-10T07:14:06.000Z,2.05
2023-03-10T07:16:32.465Z,2.40
2023-03-10T07:18:59.157Z,2.28
2023-03-10T07:21:25.950Z,2.28
2023-03-10T07:23:52.279Z,2.35
2023-03-10T07:26:19.014Z,2.15
2023-03-10T07:28:45.580Z,2.03
2023-03-10T07:31:13.238Z,2.58
2023-03-10T07:33:39.722Z,1.60
2023-03-10T07:36:07.374Z,1.67
2023-03-10T07:38:34.013Z,1.85
2023-03-10T07:41:02.068Z,1.92
2023-03-10T07:43:28.523Z,1.70
2023-03-10T07:45:55.163Z,1.92
2023-03-10T07:48:21.531Z,1.88
2023-03-10T07:50:54.956Z,1.80
2023-03-10T07:53:21.275Z,1.88
2023-03-10T07:55:47.701Z,1.65
2023-03-10T07:58:14.052Z,1.50
2023-03-10T08:00:40.545Z,1.48
2023-03-10T08:03:06.943Z,1.45
2023-03-10T08:05:33.384Z,1.70
2023-03-10T08:07:59.706Z,1.30
2023-03-10T08:10:26.062Z,1.00
2023-03-10T08:12:53.797Z,1.17
2023-03-10T08:15:20.093Z,1.30
2023-03-10T08:17:46.426Z,1.17
2023-03-10T08:20:12.990Z,1.10
2023-03-10T08:22:39.331Z,1.48
2023-03-10T08:25:06.409Z,1.00
2023-03-10T08:27:32.805Z,1.10
2023-03-10T08:29:59.132Z,0.80
2023-03-10T08:32:25.547Z,1.08
2023-03-10T08:34:51.969Z,0.93
2023-03-10T08:37:18.716Z,0.90
2023-03-10T08:39:46.428Z,0.95
2023-03-10T08:42:14.031Z,0.70
2023-03-10T08:44:40.732Z,1.08
2023-03-10T08:47:07.485Z,0.80
2023-03-10T08:49:33.900Z,1.02
2023-03-10T08:52:00.432Z,0.90
2023-03-10T08:54:26.861Z,1.00
2023-03-10T08:56:53.347Z,0.88
2023-03-10T08:59:20.155Z,0.75
2023-03-10T09:01:46.896Z,0.90
2023-03-10T09:04:13.350Z,0.85
2023-03-10T09:06:39.811Z,1.00
2023-03-10T09:09:06.898Z,0.80
2023-03-10T09:11:36.437Z,1.17
2023-03-10T09:14:04.842Z,0.60
2023-03-10T09:16:31.559Z,0.80
2023-03-10T09:18:58.792Z,0.90
2023-03-10T09:21:26.122Z,0.73
2023-03-10T09:23:53.205Z,0.57
2023-03-10T09:26:20.253Z,0.77
2023-03-10T09:28:49.315Z,0.60
2023-03-10T09:31:17.473Z,0.70
2023-03-10T09:33:45.129Z,0.50
2023-03-10T09:36:11.946Z,0.60
2023-03-10T09:38:38.419Z,0.65
2023-03-10T09:41:08.710Z,0.80
2023-03-10T09:43:39.307Z,0.50
2023-03-10T09:46:12.773Z,0.70
2023-03-10T09:48:45.017Z,0.70
2023-03-10T09:51:21.617Z,0.57
2023-03-10T09:53:53.458Z,0.47
2023-03-10T09:56:29.895Z,0.50
2023-03-10T09:59:07.409Z,0.70
2023-03-10T10:01:34.509Z,0.95
2023-03-10T10:04:10.990Z,0.68
2023-03-10T10:06:39.057Z,0.45
2023-03-10T10:09:10.103Z,0.55
2023-03-10T10:11:36.935Z,1.00
2023-03-10T10:14:38.386Z,0.52
2023-03-10T10:17:18.768Z,0.60
2023-03-10T10:19:47.059Z,0.68
2023-03-10T10:22:19.365Z,0.80
2023-03-10T10:25:08.907Z,0.95
2023-03-10T10:27:35.788Z,0.88
2023-03-10T10:30:21.016Z,0.65
2023-03-10T10:32:55.298Z,0.77
2023-03-10T10:35:22.588Z,0.80
2023-03-10T10:37:58.211Z,0.90
2023-03-10T10:40:26.077Z,0.52
2023-03-10T10:43:00.717Z,0.60
2023-03-10T10:45:30.248Z,0.70
2023-03-10T10:47:56.785Z,0.57
2023-03-10T10:50:24.557Z,0.50
2023-03-10T10:52:53.156Z,0.57
2023-03-10T10:55:22.592Z,0.40
2023-03-10T10:57:54.280Z,0.50
2023-03-10T11:00:21.092Z,0.40
2023-03-10T11:02:47.553Z,0.38
2023-03-10T11:05:16.353Z,0.25
2023-03-10T11:07:43.983Z,0.30
2023-03-10T11:10:15.060Z,0.40
2023-03-10T11:12:50.573Z,0.57
2023-03-10T11:15:49.257Z,0.25
2023-03-10T11:18:18.990Z,0.60
2023-03-10T11:20:50.572Z,0.45
2023-03-10T11:23:22.037Z,0.40
2023-03-10T11:25:51.968Z,0.60
2023-03-10T11:28:50.720Z,0.40
2023-03-10T11:31:34.003Z,0.70
2023-03-10T11:34:06.324Z,0.60
2023-03-10T11:36:56.257Z,0.93
2023-03-10T11:39:23.212Z,0.95
2023-03-10T11:41:51.753Z,0.73
2023-03-10T11:44:36.716Z,1.30
2023-03-10T11:47:06.056Z,0.75
2023-03-10T11:49:44.169Z,1.00
2023-03-10T11:52:13.483Z,1.23
2023-03-10T11:54:42.958Z,1.55
2023-03-10T11:57:17.109Z,0.85
2023-03-10T11:59:57.705Z,1.23
2023-03-10T12:02:30.006Z,1.73
2023-03-10T12:04:59.133Z,1.27
2023-03-10T12:07:28.297Z,1.25
2023-03-10T12:09:57.578Z,1.80
2023-03-10T12:12:29.800Z,1.17
2023-03-10T12:14:57.047Z,2.00
2023-03-10T12:17:23.359Z,1.50
2023-03-10T12:20:14.642Z,1.55
2023-03-10T12:22:41.048Z,2.00
2023-03-10T12:25:27.400Z,2.42
2023-03-10T12:30:38.832Z,1.50
2023-03-10T12:33:25.185Z,1.40
2023-03-10T12:40:48.096Z,2.05
2023-03-10T12:43:33.084Z,1.90
2023-03-10T12:46:00.895Z,2.47
2023-03-10T12:48:27.417Z,2.05
2023-03-10T12:50:55.575Z,2.00
2023-03-10T12:53:39.980Z,2.03
2023-03-10T12:56:12.342Z,2.05
2023-03-10T12:58:40.979Z,2.05
2023-03-10T13:01:09.996Z,2.80
2023-03-10T13:03:41.782Z,2.83
2023-03-10T13:06:20.933Z,2.20
2023-03-10T13:08:47.248Z,3.33
2023-03-10T13:11:19.711Z,3.00
2023-03-10T13:14:03.180Z,2.20
2023-03-10T13:16:29.558Z,2.40
2023-03-10T13:18:56.243Z,2.47
2023-03-10T13:21:28.321Z,2.60
2023-03-10T13:23:55.220Z,3.17
2023-03-10T13:26:22.443Z,3.30
2023-03-10T13:29:11.621Z,2.92
2023-03-10T13:31:38.071Z,3.45
2023-03-10T13:34:17.810Z,3.40
2023-03-10T13:36:44.189Z,2.78
2023-03-10T13:39:15.594Z,2.47
2023-03-10T13:41:44.179Z,2.30
2023-03-10T13:44:17.836Z,2.45
2023-03-10T13:47:01.037Z,2.10
2023-03-10T13:49:28.722Z,2.38
2023-03-10T13:52:00.203Z,2.80
2023-03-10T13:54:28.131Z,3.50
2023-03-10T13:57:09.687Z,3.20
2023-03-10T13:59:36.680Z,3.00
2023-03-10T14:02:03.927Z,3.45
2023-03-10T14:04:49.983Z,3.33
2023-03-10T14:07:22.812Z,2.65
2023-03-10T14:10:10.338Z,2.47
2023-03-10T14:12:41.029Z,2.28
2023-03-10T14:15:19.372Z,2.83
2023-03-10T14:17:46.541Z,2.20
2023-03-10T14:20:24.327Z,2.55
2023-03-10T14:22:50.698Z,2.08
2023-03-10T14:25:18.706Z,2.13
2023-03-10T14:28:06.666Z,2.17
2023-03-10T14:30:33.390Z,2.35
2023-03-10T14:33:00.832Z,2.08
2023-03-10T14:35:28.409Z,2.33
2023-03-10T14:37:55.330Z,1.83
2023-03-10T14:40:22.857Z,2.25
2023-03-10T14:42:50.537Z,2.17
2023-03-10T14:45:19.697Z,2.47
2023-03-10T14:47:46.183Z,2.33
2023-03-10T14:50:14.202Z,2.00
2023-03-10T14:52:40.581Z,1.50
2023-03-10T14:55:08.786Z,2.28
2023-03-10T14:57:35.776Z,1.40
2023-03-10T15:00:03.020Z,0.98
2023-03-10T15:02:30.615Z,0.40
2023-03-10T15:04:57.074Z,0.43
2023-03-10T15:07:23.595Z,0.43
2023-03-10T15:10:01.862Z,0.50
2023-03-10T15:12:35.365Z,0.40
2023-03-10T15:15:01.891Z,0.50
2023-03-10T15:17:28.201Z,0.63
2023-03-10T15:19:54.524Z,0.63
2023-03-10T15:22:20.861Z,0.90
2023-03-10T15:24:47.198Z,0.75
2023-03-10T15:27:14.404Z,0.60
2023-03-10T15:29:40.757Z,0.60
2023-03-10T15:32:07.254Z,0.98
2023-03-10T15:34:33.704Z,0.60
2023-03-10T15:37:00.997Z,0.80
2023-03-10T15:39:31.887Z,0.52
2023-03-10T15:41:59.068Z,0.82
2023-03-10T15:44:25.502Z,0.60
2023-03-10T15:46:54.832Z,0.60
2023-03-10T15:49:21.461Z,0.45
2023-03-10T15:51:48.114Z,0.50
2023-03-10T15:54:14.762Z,0.25
2023-03-10T15:56:41.340Z,1.00
2023-03-10T15:59:08.268Z,0.60
2023-03-10T16:01:35.027Z,0.80
2023-03-10T16:04:01.926Z,0.52
2023-03-10T16:06:28.712Z,0.50
2023-03-10T16:08:56.233Z,0.38
2023-03-10T16:11:23.059Z,0.63
2023-03-10T16:13:49.689Z,0.60
2023-03-10T16:16:20.049Z,0.40
2023-03-10T16:18:47.247Z,0.47
2023-03-10T16:21:17.897Z,0.45
2023-03-10T16:23:44.504Z,0.60
2023-03-10T16:26:15.464Z,0.50
2023-03-10T16:28:46.250Z,0.45
2023-03-10T16:31:13.332Z,0.63
2023-03-10T16:33:39.905Z,0.20
2023-03-10T16:36:07.860Z,0.40
2023-03-10T16:38:35.446Z,0.35
2023-03-10T16:41:02.472Z,1.08
2023-03-10T16:43:29.671Z,0.20
2023-03-10T16:46:04.162Z,0.65
2023-03-10T16:48:30.707Z,0.77
2023-03-10T16:50:57.183Z,0.70
2023-03-10T16:53:23.517Z,0.43
2023-03-10T16:55:49.863Z,0.43
2023-03-10T16:58:16.309Z,1.00
2023-03-10T17:00:42.930Z,0.55
2023-03-10T17:03:09.351Z,0.70
2023-03-10T17:05:35.866Z,1.05
2023-03-10T17:08:05.979Z,0.80
2023-03-10T17:10:33.464Z,0.50
2023-03-10T17:12:59.818Z,0.73
2023-03-10T17:15:26.148Z,0.98
2023-03-10T17:17:52.901Z,0.80
2023-03-10T17:20:19.721Z,1.05
2023-03-10T17:22:46.255Z,0.90
2023-03-10T17:25:13.090Z,0.65
2023-03-10T17:27:40.253Z,1.00
2023-03-10T17:30:07.923Z,1.27
2023-03-10T17:32:34.314Z,0.65
2023-03-10T17:35:00.785Z,0.52
2023-03-10T17:37:27.085Z,0.88
2023-03-10T17:39:54.536Z,0.73
2023-03-10T17:42:20.977Z,0.80
2023-03-10T17:44:47.283Z,0.85
2023-03-10T17:47:13.929Z,1.00
2023-03-10T17:49:41.119Z,0.60
2023-03-10T17:52:07.481Z,0.70
2023-03-10T17:54:34.447Z,1.02
2023-03-10T17:57:00.921Z,1.10
2023-03-10T17:59:27.282Z,1.15
2023-03-10T18:01:53.668Z,0.50
2023-03-10T18:04:20.019Z,0.88
2023-03-10T18:06:46.640Z,1.20
2023-03-10T18:09:13.940Z,1.17
2023-03-10T18:11:40.344Z,2.35
2023-03-10T18:14:09.613Z,0.70
2023-03-10T18:16:38.492Z,1.45
2023-03-10T18:19:05.103Z,0.88
2023-03-10T18:21:31.813Z,1.25
2023-03-10T18:23:58.542Z,0.85
2023-03-10T18:26:27.355Z,1.85
2023-03-10T18:28:53.751Z,1.20
2023-03-10T18:31:21.786Z,1.20
2023-03-10T18:33:48.579Z,0.73
2023-03-10T18:36:17.090Z,0.80
2023-03-10T18:38:44.261Z,0.85
2023-03-10T18:41:10.678Z,0.70
2023-03-10T18:43:37.232Z,1.17
2023-03-10T18:46:03.671Z,0.70
2023-03-10T18:48:30.213Z,0.98
2023-03-10T18:50:57.259Z,1.00
2023-03-10T18:53:24.414Z,1.02
2023-03-10T18:55:50.934Z,1.25
2023-03-10T18:58:17.256Z,1.10
2023-03-10T19:00:43.689Z,0.52
2023-03-10T19:03:16.543Z,1.35
2023-03-10T19:05:44.123Z,1.10
2023-03-10T19:08:10.678Z,1.23
2023-03-10T19:10:40.243Z,1.00
2023-03-10T19:13:07.631Z,0.70
2023-03-10T19:15:34.316Z,0.80
2023-03-10T19:18:00.726Z,0.65
2023-03-10T19:20:27.097Z,0.68
2023-03-10T19:22:53.746Z,0.80
2023-03-10T19:25:20.882Z,0.88
2023-03-10T19:27:49.004Z,1.20
2023-03-10T19:30:17.222Z,0.90
2023-03-10T19:32:44.632Z,0.55
2023-03-10T19:35:11.244Z,0.90
2023-03-10T19:37:38.623Z,1.27
2023-03-10T19:40:08.276Z,1.73
2023-03-10T19:42:35.120Z,0.98
2023-03-10T19:45:01.806Z,1.23
2023-03-10T19:47:30.286Z,0.98
2023-03-10T19:49:56.633Z,1.65
2023-03-10T19:52:23.805Z,0.70
2023-03-10T19:54:50.610Z,0.90
2023-03-10T19:57:17.690Z,0.75
2023-03-10T19:59:44.002Z,0.60
2023-03-10T20:02:14.230Z,0.85
2023-03-10T20:04:40.690Z,0.85
2023-03-10T20:07:07.102Z,0.82
2023-03-10T20:09:33.415Z,0.85
2023-03-10T20:11:59.840Z,0.73
2023-03-10T20:14:27.113Z,1.77
2023-03-10T20:16:53.436Z,0.98
2023-03-10T20:19:22.584Z,0.93
2023-03-10T20:21:50.369Z,1.02
2023-03-10T20:24:17.441Z,1.20
2023-03-10T20:26:43.964Z,1.00
2023-03-10T20:29:11.166Z,0.73
2023-03-10T20:31:37.692Z,0.88
2023-03-10T20:34:05.718Z,0.95
2023-03-10T20:36:32.245Z,1.02
2023-03-10T20:38:58.630Z,0.57
2023-03-10T20:41:24.992Z,0.90
2023-03-10T20:43:53.376Z,1.15
2023-03-10T20:46:29.629Z,1.23
2023-03-10T20:48:56.191Z,0.90
2023-03-10T20:51:23.326Z,1.23
2023-03-10T20:53:51.745Z,0.73
2023-03-10T20:56:18.146Z,2.60
2023-03-10T20:58:44.458Z,0.60
2023-03-10T21:01:18.609Z,0.60
2023-03-10T21:03:45.137Z,0.77
2023-03-10T21:06:11.538Z,0.80
2023-03-10T21:08:37.944Z,0.90
2023-03-10T21:11:04.418Z,0.60
2023-03-10T21:13:30.792Z,0.60
2023-03-10T21:15:57.210Z,1.30
2023-03-10T21:18:23.650Z,0.80
2023-03-10T21:20:50.389Z,1.02
2023-03-10T21:23:16.732Z,0.95
2023-03-10T21:25:43.092Z,1.10
2023-03-10T21:28:09.559Z,0.38
2023-03-10T21:30:36.088Z,0.60
2023-03-10T21:33:02.665Z,1.20
2023-03-10T21:35:31.837Z,1.05
2023-03-10T21:37:59.341Z,0.80
2023-03-10T21:40:26.572Z,0.60
2023-03-10T21:42:52.983Z,0.60
2023-03-10T21:45:20.893Z,0.40
2023-03-10T21:47:47.294Z,0.80
2023-03-10T21:50:13.770Z,0.70
2023-03-10T21:52:40.714Z,0.77
2023-03-10T21:55:08.685Z,0.57
2023-03-10T21:57:35.246Z,0.80
2023-03-10T22:00:01.673Z,0.70
2023-03-10T22:02:29.440Z,0.73
2023-03-10T22:04:56.578Z,0.90
2023-03-10T22:07:23.608Z,0.80
2023-03-10T22:09:50.112Z,0.70
2023-03-10T22:12:18.534Z,0.90
2023-03-10T22:14:44.977Z,1.60
2023-03-10T22:17:11.508Z,0.60
2023-03-10T22:19:37.831Z,0.70
2023-03-10T22:22:05.172Z,0.95
2023-03-10T22:24:31.569Z,0.57
2023-03-10T22:26:57.964Z,0.80
2023-03-10T22:29:24.336Z,0.70
2023-03-10T22:31:51.761Z,0.70
2023-03-10T22:34:18.162Z,0.50
2023-03-10T22:36:44.864Z,0.55
2023-03-10T22:39:11.343Z,0.60
2023-03-10T22:41:38.844Z,0.70
2023-03-10T22:44:05.438Z,0.45
2023-03-10T22:46:32.445Z,0.70
2023-03-10T22:48:59.392Z,0.90
2023-03-10T22:51:25.929Z,0.75
2023-03-10T22:53:52.266Z,0.57
2023-03-10T22:56:18.603Z,0.57
2023-03-10T22:58:45.030Z,0.70
2023-03-10T23:01:11.568Z,0.60
2023-03-10T23:03:38.061Z,0.88
2023-03-10T23:06:07.979Z,0.57
2023-03-10T23:08:37.362Z,0.50
2023-03-10T23:11:08.050Z,0.68
2023-03-10T23:13:34.365Z,0.50
2023-03-10T23:16:00.838Z,0.40
2023-03-10T23:18:27.171Z,0.50
2023-03-10T23:20:53.607Z,0.57
2023-03-10T23:23:20.061Z,0.63
2023-03-10T23:25:47.622Z,0.40
2023-03-10T23:28:14.463Z,0.80
2023-03-10T23:30:42.416Z,0.60
2023-03-10T23:33:08.921Z,0.30
2023-03-10T23:35:35.620Z,1.02
2023-03-10T23:38:02.990Z,0.50
2023-03-10T23:40:30.216Z,0.73
2023-03-10T23:42:57.455Z,1.13
2023-03-10T23:45:24.743Z,0.50
2023-03-10T23:47:52.175Z,0.50
2023-03-10T23:50:20.616Z,0.40
2023-03-10T23:52:47.304Z,0.85
2023-03-10T23:55:15.077Z,0.47
2023-03-10T23:57:41.554Z,0.60
